createdAt,value
2022-11-15T00:00:20.405Z,6.08
2022-11-15T00:01:12.313Z,6.11
2022-11-15T00:02:05.112Z,6.09
2022-11-15T00:02:55.963Z,6.10
2022-11-15T00:03:46.959Z,6.13
2022-11-15T00:04:37.450Z,6.16
2022-11-15T00:05:27.376Z,6.12
2022-11-15T00:06:17.228Z,6.15
2022-11-15T00:07:07.290Z,6.11
2022-11-15T00:07:58.127Z,6.15
2022-11-15T00:08:48.154Z,6.13
2022-11-15T00:09:41.009Z,6.16
2022-11-15T00:10:35.046Z,6.13
2022-11-15T00:11:25.025Z,6.18
2022-11-15T00:12:15.314Z,6.20
2022-11-15T00:13:09.419Z,6.18
2022-11-15T00:13:59.543Z,6.22
2022-11-15T00:14:49.764Z,6.24
2022-11-15T00:15:41.024Z,6.27
2022-11-15T00:16:31.056Z,6.27
2022-11-15T00:17:21.096Z,6.28
2022-11-15T00:18:14.931Z,6.25
2022-11-15T00:19:04.968Z,6.28
2022-11-15T00:19:54.845Z,6.31
2022-11-15T00:20:44.991Z,6.32
2022-11-15T00:21:35.115Z,6.32
2022-11-15T00:22:25.076Z,6.32
2022-11-15T00:23:14.960Z,6.34
2022-11-15T00:24:05.257Z,6.36
2022-11-15T00:24:55.183Z,6.36
2022-11-15T00:25:45.212Z,6.35
2022-11-15T00:26:35.108Z,6.39
2022-11-15T00:27:25.407Z,6.37
2022-11-15T00:28:15.263Z,6.35
2022-11-15T00:29:05.343Z,6.39
2022-11-15T00:29:55.306Z,6.39
2022-11-15T00:30:45.203Z,6.38
2022-11-15T00:31:35.298Z,6.42
2022-11-15T00:32:25.589Z,6.42
2022-11-15T00:33:15.590Z,6.48
2022-11-15T00:34:13.499Z,6.44
2022-11-15T00:35:03.593Z,6.46
2022-11-15T00:35:53.859Z,6.47
2022-11-15T00:36:43.744Z,6.48
2022-11-15T00:37:33.421Z,6.50
2022-11-15T00:38:23.322Z,6.53
2022-11-15T00:39:13.252Z,6.51
2022-11-15T00:40:03.302Z,6.50
2022-11-15T00:40:53.322Z,6.51
2022-11-15T00:41:43.358Z,6.54
2022-11-15T00:42:33.200Z,6.56
2022-11-15T00:43:23.492Z,6.55
2022-11-15T00:44:13.447Z,6.59
2022-11-15T00:45:03.963Z,6.57
2022-11-15T00:45:54.396Z,6.57
2022-11-15T00:46:44.645Z,6.56
2022-11-15T00:47:34.447Z,6.62
2022-11-15T00:48:24.737Z,6.59
2022-11-15T00:49:14.674Z,6.59
2022-11-15T00:50:05.403Z,6.61
2022-11-15T00:50:55.711Z,6.63
2022-11-15T00:51:45.939Z,6.61
2022-11-15T00:52:35.783Z,6.62
2022-11-15T00:53:25.525Z,6.61
2022-11-15T00:54:15.411Z,6.61
2022-11-15T00:55:05.680Z,6.62
2022-11-15T00:55:55.858Z,6.63
2022-11-15T00:56:45.960Z,6.64
2022-11-15T00:57:35.985Z,6.62
2022-11-15T00:58:26.012Z,6.63
2022-11-15T00:59:15.961Z,6.66
2022-11-15T01:00:06.895Z,6.69
2022-11-15T01:00:56.982Z,6.68
2022-11-15T01:01:46.704Z,6.69
2022-11-15T01:02:36.703Z,6.70
2022-11-15T01:03:26.475Z,6.70
2022-11-15T01:04:16.476Z,6.75
2022-11-15T01:05:06.809Z,6.75
2022-11-15T01:06:00.529Z,6.76
2022-11-15T01:06:50.559Z,6.77
2022-11-15T01:07:40.958Z,6.77
2022-11-15T01:08:30.927Z,6.76
2022-11-15T01:09:20.927Z,6.77
2022-11-15T01:10:11.193Z,6.80
2022-11-15T01:11:05.894Z,6.79
2022-11-15T01:11:56.053Z,6.81
2022-11-15T01:12:46.378Z,6.78
2022-11-15T01:13:39.725Z,6.81
2022-11-15T01:14:29.856Z,6.81
2022-11-15T01:15:19.759Z,6.81
2022-11-15T01:16:12.310Z,6.77
2022-11-15T01:17:02.521Z,6.78
2022-11-15T01:17:52.451Z,6.84
2022-11-15T01:18:42.258Z,6.85
2022-11-15T01:19:32.382Z,6.86
2022-11-15T01:20:22.297Z,6.85
2022-11-15T01:21:17.725Z,6.87
2022-11-15T01:22:07.985Z,6.90
2022-11-15T01:22:58.022Z,6.87
2022-11-15T01:23:47.868Z,6.88
2022-11-15T01:24:37.786Z,6.87
2022-11-15T01:25:27.849Z,6.86
2022-11-15T01:26:18.202Z,6.87
2022-11-15T01:27:08.525Z,6.88
2022-11-15T01:27:58.404Z,6.88
2022-11-15T01:28:48.188Z,6.85
2022-11-15T01:29:37.922Z,6.85
2022-11-15T01:30:28.080Z,6.86
2022-11-15T01:31:22.342Z,6.88
2022-11-15T01:32:12.294Z,6.86
2022-11-15T01:33:02.139Z,6.87
2022-11-15T01:33:52.123Z,6.87
2022-11-15T01:34:42.129Z,6.90
2022-11-15T01:35:32.097Z,6.89
2022-11-15T01:36:23.279Z,6.89
2022-11-15T01:37:13.283Z,6.88
2022-11-15T01:38:03.363Z,6.91
2022-11-15T01:38:57.084Z,6.91
2022-11-15T01:39:47.072Z,6.91
2022-11-15T01:40:36.763Z,6.94
2022-11-15T01:41:30.068Z,6.92
2022-11-15T01:42:20.347Z,6.92
2022-11-15T01:43:25.168Z,6.94
2022-11-15T01:44:41.353Z,6.97
2022-11-15T01:45:31.612Z,6.96
2022-11-15T01:46:34.358Z,6.97
2022-11-15T01:47:30.289Z,6.97
2022-11-15T01:48:20.515Z,6.98
2022-11-15T01:49:16.815Z,6.98
2022-11-15T01:50:10.954Z,6.99
2022-11-15T01:51:04.018Z,7.00
2022-11-15T01:51:54.984Z,7.01
2022-11-15T01:52:45.300Z,7.01
2022-11-15T01:53:37.497Z,7.03
2022-11-15T01:54:27.744Z,7.02
2022-11-15T01:55:23.496Z,7.04
2022-11-15T01:56:17.971Z,7.04
2022-11-15T01:57:10.879Z,7.06
2022-11-15T01:58:03.412Z,7.08
2022-11-15T01:58:54.298Z,7.08
2022-11-15T01:59:45.948Z,7.06
2022-11-15T02:00:36.248Z,7.09
2022-11-15T02:01:30.384Z,7.09
2022-11-15T02:02:22.263Z,7.10
2022-11-15T02:03:12.071Z,7.10
2022-11-15T02:04:07.036Z,7.12
2022-11-15T02:04:56.840Z,7.13
2022-11-15T02:05:46.747Z,7.13
2022-11-15T02:06:37.109Z,7.16
2022-11-15T02:07:27.577Z,7.16
2022-11-15T02:08:20.998Z,7.17
2022-11-15T02:09:11.932Z,7.18
2022-11-15T02:10:22.965Z,7.20
2022-11-15T02:11:13.131Z,7.20
2022-11-15T02:12:03.235Z,7.22
2022-11-15T02:12:53.703Z,7.21
2022-11-15T02:13:44.587Z,7.23
2022-11-15T02:14:34.716Z,7.24
2022-11-15T02:15:30.310Z,7.23
2022-11-15T02:16:28.958Z,7.27
2022-11-15T02:17:36.884Z,7.30
2022-11-15T02:18:34.470Z,7.33
2022-11-15T02:19:33.338Z,7.34
2022-11-15T02:20:48.009Z,7.34
2022-11-15T02:21:45.584Z,7.36
2022-11-15T02:22:52.211Z,7.37
2022-11-15T02:24:31.669Z,7.37
2022-11-15T02:25:49.724Z,7.39
2022-11-15T02:26:58.147Z,7.40
2022-11-15T02:28:12.598Z,7.43
2022-11-15T02:29:07.133Z,7.45
2022-11-15T02:30:20.763Z,7.45
2022-11-15T02:31:32.073Z,7.44
2022-11-15T02:32:35.213Z,7.47
2022-11-15T02:33:40.273Z,7.45
2022-11-15T02:34:48.708Z,7.48
2022-11-15T02:35:59.805Z,7.52
2022-11-15T02:37:28.736Z,7.54
2022-11-15T02:38:27.232Z,7.56
2022-11-15T02:39:23.577Z,7.56
2022-11-15T02:40:30.803Z,7.58
2022-11-15T02:41:25.359Z,7.59
2022-11-15T02:42:41.187Z,7.57
2022-11-15T02:43:58.972Z,7.58
2022-11-15T02:44:49.928Z,7.61
2022-11-15T02:45:50.084Z,7.61
2022-11-15T02:47:01.178Z,7.64
2022-11-15T02:47:53.341Z,7.63
2022-11-15T02:48:44.325Z,7.64
2022-11-15T02:49:36.018Z,7.62
2022-11-15T02:50:29.118Z,7.65
2022-11-15T02:51:19.516Z,7.67
2022-11-15T02:52:09.507Z,7.68
2022-11-15T02:52:59.480Z,7.68
2022-11-15T02:53:49.717Z,7.68
2022-11-15T02:54:39.826Z,7.68
2022-11-15T02:55:32.420Z,7.65
2022-11-15T02:56:22.324Z,7.67
2022-11-15T02:57:16.574Z,7.70
2022-11-15T02:58:19.365Z,7.72
2022-11-15T02:59:24.907Z,7.75
2022-11-15T03:00:21.780Z,7.78
2022-11-15T03:01:20.616Z,7.81
2022-11-15T03:02:25.563Z,7.83
2022-11-15T03:03:26.044Z,7.86
2022-11-15T03:04:52.503Z,7.85
2022-11-15T03:05:47.282Z,7.87
2022-11-15T03:06:47.604Z,7.87
2022-11-15T03:08:02.296Z,7.91
2022-11-15T03:09:05.032Z,7.93
2022-11-15T03:10:07.022Z,7.94
2022-11-15T03:11:12.911Z,7.95
2022-11-15T03:12:30.138Z,7.96
2022-11-15T03:13:40.812Z,7.95
2022-11-15T03:14:35.652Z,7.94
2022-11-15T03:15:31.336Z,7.94
2022-11-15T03:16:21.300Z,7.95
2022-11-15T03:17:40.112Z,7.95
2022-11-15T03:18:37.103Z,7.95
2022-11-15T03:19:56.180Z,7.98
2022-11-15T03:20:47.621Z,7.98
2022-11-15T03:21:37.666Z,7.98
2022-11-15T03:22:30.332Z,7.99
2022-11-15T03:23:20.763Z,7.99
2022-11-15T03:24:11.372Z,7.97
2022-11-15T03:25:04.282Z,8.00
2022-11-15T03:25:55.988Z,8.00
2022-11-15T03:26:45.943Z,8.02
2022-11-15T03:27:39.354Z,8.01
2022-11-15T03:28:35.433Z,8.04
2022-11-15T03:29:32.403Z,8.06
2022-11-15T03:30:22.372Z,8.07
2022-11-15T03:31:31.944Z,8.08
2022-11-15T03:32:26.648Z,8.08
2022-11-15T03:33:17.223Z,8.09
2022-11-15T03:34:10.642Z,8.08
2022-11-15T03:35:08.180Z,8.09
2022-11-15T03:35:58.744Z,8.13
2022-11-15T03:36:49.921Z,8.11
2022-11-15T03:37:54.502Z,8.15
2022-11-15T03:38:45.788Z,8.13
2022-11-15T03:39:35.840Z,8.09
2022-11-15T03:40:31.989Z,8.09
2022-11-15T03:41:34.432Z,8.11
2022-11-15T03:42:30.162Z,8.15
2022-11-15T03:43:41.048Z,8.14
2022-11-15T03:44:43.347Z,8.16
2022-11-15T03:45:38.019Z,8.16
2022-11-15T03:46:39.522Z,8.18
2022-11-15T03:47:52.823Z,8.21
2022-11-15T03:48:51.657Z,8.20
2022-11-15T03:49:47.863Z,8.21
2022-11-15T03:50:38.105Z,8.21
2022-11-15T03:51:27.894Z,8.21
2022-11-15T03:52:22.388Z,8.23
2022-11-15T03:53:13.419Z,8.26
2022-11-15T03:54:05.138Z,8.26
2022-11-15T03:54:57.315Z,8.28
2022-11-15T03:55:47.200Z,8.28
2022-11-15T03:56:37.003Z,8.27
2022-11-15T03:57:26.911Z,8.29
2022-11-15T03:58:16.900Z,8.28
2022-11-15T03:59:07.127Z,8.30
2022-11-15T03:59:57.069Z,8.30
2022-11-15T04:00:47.139Z,8.31
2022-11-15T04:01:37.250Z,8.30
2022-11-15T04:02:29.176Z,8.31
2022-11-15T04:03:19.151Z,8.33
2022-11-15T04:04:09.032Z,8.33
2022-11-15T04:04:58.969Z,8.33
2022-11-15T04:05:48.840Z,8.33
2022-11-15T04:06:38.809Z,8.34
2022-11-15T04:07:29.216Z,8.34
2022-11-15T04:08:19.525Z,8.36
2022-11-15T04:09:09.815Z,8.40
2022-11-15T04:10:06.718Z,8.41
2022-11-15T04:10:56.887Z,8.41
2022-11-15T04:11:47.112Z,8.42
2022-11-15T04:12:40.479Z,8.41
2022-11-15T04:13:30.847Z,8.44
2022-11-15T04:14:21.136Z,8.44
2022-11-15T04:15:13.207Z,8.45
2022-11-15T04:16:03.069Z,8.44
2022-11-15T04:16:53.228Z,8.45
2022-11-15T04:17:53.899Z,8.46
2022-11-15T04:18:43.827Z,8.50
2022-11-15T04:19:52.775Z,8.55
2022-11-15T04:21:01.655Z,8.52
2022-11-15T04:22:09.933Z,8.54
2022-11-15T04:23:20.611Z,8.53
2022-11-15T04:24:14.039Z,8.53
2022-11-15T04:25:04.279Z,8.54
2022-11-15T04:25:56.243Z,8.54
2022-11-15T04:26:47.284Z,8.57
2022-11-15T04:27:37.345Z,8.57
2022-11-15T04:28:27.603Z,8.57
2022-11-15T04:29:35.615Z,8.58
2022-11-15T04:30:25.735Z,8.58
2022-11-15T04:31:15.667Z,8.59
2022-11-15T04:32:07.235Z,8.60
2022-11-15T04:32:56.975Z,8.61
2022-11-15T04:33:46.880Z,8.61
2022-11-15T04:34:36.894Z,8.60
2022-11-15T04:35:26.822Z,8.62
2022-11-15T04:36:35.569Z,8.62
2022-11-15T04:37:25.833Z,8.62
2022-11-15T04:38:16.448Z,8.62
2022-11-15T04:39:06.520Z,8.62
2022-11-15T04:39:56.199Z,8.64
2022-11-15T04:40:46.010Z,8.64
2022-11-15T04:41:36.023Z,8.65
2022-11-15T04:42:26.115Z,8.66
2022-11-15T04:43:16.453Z,8.65
2022-11-15T04:44:06.236Z,8.66
2022-11-15T04:44:56.990Z,8.66
2022-11-15T04:45:47.071Z,8.65
2022-11-15T04:46:36.886Z,8.67
2022-11-15T04:47:29.053Z,8.70
2022-11-15T04:48:18.974Z,8.69
2022-11-15T04:49:08.838Z,8.74
2022-11-15T04:49:58.754Z,8.74
2022-11-15T04:50:50.097Z,8.75
2022-11-15T04:51:40.065Z,8.77
2022-11-15T04:52:29.923Z,8.78
2022-11-15T04:53:19.805Z,8.77
2022-11-15T04:54:10.025Z,8.79
2022-11-15T04:55:05.132Z,8.77
2022-11-15T04:55:58.078Z,8.78
2022-11-15T04:56:48.255Z,8.83
2022-11-15T04:57:39.358Z,8.85
2022-11-15T04:58:29.504Z,8.85
2022-11-15T04:59:19.455Z,8.86
2022-11-15T05:00:16.003Z,8.88
2022-11-15T05:01:09.981Z,8.87
2022-11-15T05:02:00.013Z,8.86
2022-11-15T05:03:08.691Z,8.87
2022-11-15T05:04:17.969Z,8.88
2022-11-15T05:05:09.304Z,8.89
2022-11-15T05:06:00.003Z,8.88
2022-11-15T05:06:51.876Z,8.89
2022-11-15T05:07:42.011Z,8.89
2022-11-15T05:08:32.037Z,8.91
2022-11-15T05:09:22.182Z,8.93
2022-11-15T05:10:12.499Z,8.95
2022-11-15T05:11:02.504Z,8.98
2022-11-15T05:11:52.772Z,8.94
2022-11-15T05:12:43.184Z,8.96
2022-11-15T05:13:33.122Z,8.98
2022-11-15T05:14:23.371Z,9.01
2022-11-15T05:15:13.389Z,9.04
2022-11-15T05:16:03.384Z,9.03
2022-11-15T05:16:53.215Z,9.02
2022-11-15T05:17:43.361Z,9.05
2022-11-15T05:18:33.307Z,9.06
2022-11-15T05:19:24.000Z,9.08
2022-11-15T05:20:14.496Z,9.08
2022-11-15T05:21:12.584Z,9.09
2022-11-15T05:22:02.899Z,9.09
2022-11-15T05:22:54.645Z,9.13
2022-11-15T05:23:44.856Z,9.15
2022-11-15T05:24:35.918Z,9.13
2022-11-15T05:25:26.392Z,9.15
2022-11-15T05:26:18.583Z,9.14
2022-11-15T05:27:08.743Z,9.16
2022-11-15T05:27:58.843Z,9.18
2022-11-15T05:28:54.101Z,9.19
2022-11-15T05:29:44.260Z,9.17
2022-11-15T05:30:34.579Z,9.19
2022-11-15T05:31:25.566Z,9.21
2022-11-15T05:32:16.003Z,9.22
2022-11-15T05:33:06.071Z,9.22
2022-11-15T05:33:57.286Z,9.22
2022-11-15T05:34:47.494Z,9.23
2022-11-15T05:35:41.372Z,9.21
2022-11-15T05:36:43.383Z,9.23
2022-11-15T05:37:33.595Z,9.22
2022-11-15T05:38:24.654Z,9.25
2022-11-15T05:39:15.311Z,9.24
2022-11-15T05:40:06.208Z,9.22
2022-11-15T05:40:56.316Z,9.25
2022-11-15T05:41:52.277Z,9.24
2022-11-15T05:42:42.429Z,9.23
2022-11-15T05:43:33.751Z,9.23
2022-11-15T05:44:24.640Z,9.25
2022-11-15T05:45:15.016Z,9.26
2022-11-15T05:46:05.543Z,9.27
2022-11-15T05:46:56.504Z,9.28
2022-11-15T05:47:47.304Z,9.26
2022-11-15T05:48:38.902Z,9.25
2022-11-15T05:49:32.817Z,9.23
2022-11-15T05:50:22.872Z,9.25
2022-11-15T05:51:13.650Z,9.26
2022-11-15T05:52:06.600Z,9.27
2022-11-15T05:53:02.218Z,9.28
2022-11-15T05:53:57.703Z,9.26
2022-11-15T05:54:48.499Z,9.25
2022-11-15T05:55:40.088Z,9.24
2022-11-15T05:56:32.199Z,9.30
2022-11-15T05:57:22.468Z,9.31
2022-11-15T05:58:12.405Z,9.31
2022-11-15T05:59:02.313Z,9.32
2022-11-15T05:59:52.729Z,9.33
2022-11-15T06:00:44.143Z,9.33
2022-11-15T06:01:34.531Z,9.34
2022-11-15T06:02:24.608Z,9.32
2022-11-15T06:03:15.240Z,9.33
2022-11-15T06:04:05.223Z,9.37
2022-11-15T06:04:55.229Z,9.37
2022-11-15T06:05:45.247Z,9.39
2022-11-15T06:06:35.064Z,9.40
2022-11-15T06:07:24.953Z,9.41
2022-11-15T06:08:14.926Z,9.45
2022-11-15T06:09:05.142Z,9.45
2022-11-15T06:09:55.266Z,9.45
2022-11-15T06:10:45.160Z,9.44
2022-11-15T06:11:35.066Z,9.42
2022-11-15T06:12:24.870Z,9.42
2022-11-15T06:13:14.967Z,9.43
2022-11-15T06:14:05.577Z,9.45
2022-11-15T06:14:55.527Z,9.48
2022-11-15T06:15:45.431Z,9.50
2022-11-15T06:16:35.307Z,9.56
2022-11-15T06:17:25.349Z,9.55
2022-11-15T06:18:15.296Z,9.54
2022-11-15T06:19:07.045Z,9.55
2022-11-15T06:19:56.989Z,9.51
2022-11-15T06:20:46.998Z,9.53
2022-11-15T06:21:37.163Z,9.50
2022-11-15T06:22:27.112Z,9.48
2022-11-15T06:23:17.185Z,9.49
2022-11-15T06:24:07.214Z,9.47
2022-11-15T06:25:00.248Z,9.52
2022-11-15T06:25:54.229Z,9.52
2022-11-15T06:26:44.110Z,9.57
2022-11-15T06:27:34.119Z,9.60
2022-11-15T06:28:24.295Z,9.64
2022-11-15T06:29:14.075Z,9.62
2022-11-15T06:30:04.243Z,9.59
2022-11-15T06:30:54.341Z,9.62
2022-11-15T06:31:44.306Z,9.59
2022-11-15T06:33:01.483Z,9.64
2022-11-15T06:33:51.329Z,9.64
2022-11-15T06:34:41.291Z,9.64
2022-11-15T06:35:32.000Z,9.64
2022-11-15T06:36:22.423Z,9.64
2022-11-15T06:37:12.653Z,9.60
2022-11-15T06:38:04.823Z,9.64
2022-11-15T06:38:54.704Z,9.60
2022-11-15T06:39:44.787Z,9.62
2022-11-15T06:40:36.245Z,9.62
2022-11-15T06:41:26.349Z,9.64
2022-11-15T06:42:16.278Z,9.66
2022-11-15T06:43:06.867Z,9.67
2022-11-15T06:43:58.178Z,9.66
2022-11-15T06:44:48.413Z,9.66
2022-11-15T06:45:38.727Z,9.66
2022-11-15T06:46:28.538Z,9.66
2022-11-15T06:47:18.437Z,9.68
2022-11-15T06:48:08.417Z,9.68
2022-11-15T06:48:58.400Z,9.66
2022-11-15T06:49:48.224Z,9.67
2022-11-15T06:50:38.290Z,9.66
2022-11-15T06:51:28.107Z,9.68
2022-11-15T06:52:20.105Z,9.70
2022-11-15T06:53:10.017Z,9.68
2022-11-15T06:54:00.286Z,9.68
2022-11-15T06:54:50.148Z,9.67
2022-11-15T06:55:40.111Z,9.68
2022-11-15T06:56:30.167Z,9.68
2022-11-15T06:57:20.000Z,9.69
2022-11-15T06:58:10.047Z,9.68
2022-11-15T06:59:00.368Z,9.66
2022-11-15T06:59:50.231Z,9.71
2022-11-15T07:00:41.064Z,9.70
2022-11-15T07:01:31.179Z,9.69
2022-11-15T07:02:21.483Z,9.69
2022-11-15T07:03:11.788Z,9.70
2022-11-15T07:04:01.704Z,9.69
2022-11-15T07:04:51.566Z,9.69
2022-11-15T07:05:41.582Z,9.71
2022-11-15T07:06:31.544Z,9.72
2022-11-15T07:07:21.783Z,9.73
2022-11-15T07:08:12.200Z,9.77
2022-11-15T07:09:04.230Z,9.75
2022-11-15T07:09:54.354Z,9.74
2022-11-15T07:10:44.250Z,9.75
2022-11-15T07:11:34.643Z,9.76
2022-11-15T07:12:24.776Z,9.73
2022-11-15T07:13:15.028Z,9.75
2022-11-15T07:14:05.031Z,9.75
2022-11-15T07:14:55.114Z,9.75
2022-11-15T07:15:45.304Z,9.75
2022-11-15T07:16:35.241Z,9.77
2022-11-15T07:17:25.563Z,9.78
2022-11-15T07:18:15.599Z,9.77
2022-11-15T07:19:05.414Z,9.79
2022-11-15T07:19:55.383Z,9.78
2022-11-15T07:20:45.554Z,9.79
2022-11-15T07:21:35.491Z,9.79
2022-11-15T07:22:25.549Z,9.78
2022-11-15T07:23:16.895Z,9.78
2022-11-15T07:24:07.150Z,9.78
2022-11-15T07:24:57.267Z,9.78
2022-11-15T07:25:47.457Z,9.79
2022-11-15T07:26:37.499Z,9.79
2022-11-15T07:27:27.404Z,9.78
2022-11-15T07:28:17.463Z,9.78
2022-11-15T07:29:07.892Z,9.78
2022-11-15T07:29:57.824Z,9.79
2022-11-15T07:30:47.840Z,9.80
2022-11-15T07:31:38.219Z,9.81
2022-11-15T07:32:28.565Z,9.78
2022-11-15T07:33:43.268Z,9.81
2022-11-15T07:34:33.187Z,9.81
2022-11-15T07:35:24.021Z,9.79
2022-11-15T07:36:13.748Z,9.82
2022-11-15T07:37:03.744Z,9.83
2022-11-15T07:37:57.245Z,9.83
2022-11-15T07:38:47.467Z,9.84
2022-11-15T07:39:37.237Z,9.84
2022-11-15T07:40:32.594Z,9.86
2022-11-15T07:41:22.780Z,9.88
2022-11-15T07:42:31.475Z,9.87
2022-11-15T07:43:21.996Z,9.87
2022-11-15T07:44:12.011Z,9.87
2022-11-15T07:45:02.400Z,9.87
2022-11-15T07:45:57.602Z,9.87
2022-11-15T07:46:48.812Z,9.84
2022-11-15T07:47:38.728Z,9.84
2022-11-15T07:48:42.276Z,9.84
2022-11-15T07:49:33.406Z,9.84
2022-11-15T07:50:24.610Z,9.86
2022-11-15T07:51:16.426Z,9.86
2022-11-15T07:52:06.218Z,9.85
2022-11-15T07:52:57.551Z,9.85
2022-11-15T07:53:47.883Z,9.86
2022-11-15T07:54:38.345Z,9.87
2022-11-15T07:55:30.287Z,9.88
2022-11-15T07:56:21.815Z,9.88
2022-11-15T07:57:11.851Z,9.89
2022-11-15T07:58:04.263Z,9.89
2022-11-15T07:58:54.083Z,9.88
2022-11-15T07:59:44.074Z,9.88
2022-11-15T08:00:35.037Z,9.88
2022-11-15T08:01:25.357Z,9.88
2022-11-15T08:02:17.623Z,9.90
2022-11-15T08:03:15.949Z,9.91
2022-11-15T08:04:05.844Z,9.93
2022-11-15T08:04:55.714Z,9.92
2022-11-15T08:05:51.757Z,9.93
2022-11-15T08:06:41.768Z,9.91
2022-11-15T08:07:33.760Z,9.91
2022-11-15T08:08:24.176Z,9.92
2022-11-15T08:09:16.976Z,9.91
2022-11-15T08:10:08.878Z,9.90
2022-11-15T08:10:59.882Z,9.90
2022-11-15T08:11:50.157Z,9.90
2022-11-15T08:12:40.483Z,9.87
2022-11-15T08:13:31.099Z,9.87
2022-11-15T08:14:23.208Z,9.85
2022-11-15T08:15:13.570Z,9.87
2022-11-15T08:16:06.597Z,9.88
2022-11-15T08:16:56.816Z,9.89
2022-11-15T08:17:46.660Z,9.87
2022-11-15T08:18:36.490Z,9.87
2022-11-15T08:19:26.720Z,9.87
2022-11-15T08:20:16.418Z,9.88
2022-11-15T08:21:06.295Z,9.89
2022-11-15T08:21:56.484Z,9.87
2022-11-15T08:22:46.533Z,9.88
2022-11-15T08:23:36.595Z,9.87
2022-11-15T08:24:26.541Z,9.89
2022-11-15T08:25:16.480Z,9.90
2022-11-15T08:26:06.650Z,9.89
2022-11-15T08:26:56.727Z,9.91
2022-11-15T08:27:46.841Z,9.88
2022-11-15T08:28:36.990Z,9.88
2022-11-15T08:29:27.437Z,9.88
2022-11-15T08:30:17.896Z,9.94
2022-11-15T08:31:13.487Z,9.95
2022-11-15T08:32:05.646Z,9.93
2022-11-15T08:32:58.326Z,9.95
2022-11-15T08:33:48.212Z,9.94
2022-11-15T08:34:39.048Z,9.94
2022-11-15T08:35:29.552Z,9.93
2022-11-15T08:36:19.988Z,9.95
2022-11-15T08:37:09.675Z,9.95
2022-11-15T08:37:59.546Z,9.95
2022-11-15T08:38:49.504Z,9.96
2022-11-15T08:39:39.432Z,9.95
2022-11-15T08:40:29.594Z,9.97
2022-11-15T08:41:32.753Z,9.97
2022-11-15T08:42:22.820Z,9.96
2022-11-15T08:43:12.887Z,9.98
2022-11-15T08:44:03.314Z,9.98
2022-11-15T08:44:53.379Z,9.99
2022-11-15T08:45:43.275Z,10.00
2022-11-15T08:46:33.279Z,10.02
2022-11-15T08:47:23.112Z,10.03
2022-11-15T08:48:13.108Z,10.07
2022-11-15T08:49:02.952Z,10.11
2022-11-15T08:49:52.986Z,10.12
2022-11-15T08:50:44.736Z,10.16
2022-11-15T08:51:34.827Z,10.17
2022-11-15T08:52:25.019Z,10.19
2022-11-15T08:53:15.429Z,10.25
2022-11-15T08:54:05.895Z,10.28
2022-11-15T08:54:56.130Z,10.33
2022-11-15T08:55:46.100Z,10.33
2022-11-15T08:56:36.591Z,10.40
2022-11-15T08:57:31.139Z,10.40
2022-11-15T08:58:20.991Z,10.39
2022-11-15T08:59:11.043Z,10.36
2022-11-15T09:00:01.112Z,10.34
2022-11-15T09:00:50.995Z,10.40
2022-11-15T09:01:41.156Z,10.39
2022-11-15T09:02:30.976Z,10.42
2022-11-15T09:03:21.100Z,10.43
2022-11-15T09:04:11.212Z,10.41
2022-11-15T09:05:01.058Z,10.48
2022-11-15T09:05:58.077Z,10.70
2022-11-15T09:06:48.104Z,10.72
2022-11-15T09:07:37.976Z,10.98
2022-11-15T09:08:48.467Z,11.31
2022-11-15T09:09:39.169Z,11.48
2022-11-15T09:10:29.140Z,11.58
2022-11-15T09:11:21.322Z,11.64
2022-11-15T09:12:11.726Z,11.70
2022-11-15T09:13:01.984Z,11.76
2022-11-15T09:13:52.620Z,11.76
2022-11-15T09:14:43.460Z,11.70
2022-11-15T09:15:33.743Z,11.57
2022-11-15T09:16:24.791Z,11.46
2022-11-15T09:17:14.772Z,11.34
2022-11-15T09:18:04.841Z,11.29
2022-11-15T09:18:55.509Z,11.27
2022-11-15T09:19:45.763Z,11.13
2022-11-15T09:20:35.499Z,11.19
2022-11-15T09:21:25.489Z,11.21
2022-11-15T09:22:15.539Z,11.18
2022-11-15T09:23:06.057Z,11.18
2022-11-15T09:23:56.478Z,11.23
2022-11-15T09:24:46.925Z,11.17
2022-11-15T09:25:37.017Z,11.17
2022-11-15T09:26:27.021Z,11.15
2022-11-15T09:27:17.427Z,11.19
2022-11-15T09:28:08.825Z,11.17
2022-11-15T09:28:58.996Z,11.19
2022-11-15T09:29:49.918Z,11.23
2022-11-15T09:30:39.940Z,11.19
2022-11-15T09:31:30.785Z,11.15
2022-11-15T09:32:20.935Z,11.14
2022-11-15T09:33:12.479Z,11.12
2022-11-15T09:34:03.115Z,11.05
2022-11-15T09:34:53.391Z,11.01
2022-11-15T09:35:43.356Z,11.07
2022-11-15T09:36:33.496Z,11.10
2022-11-15T09:37:23.349Z,11.16
2022-11-15T09:38:13.329Z,11.15
2022-11-15T09:39:03.775Z,11.09
2022-11-15T09:39:53.809Z,11.09
2022-11-15T09:40:43.744Z,11.09
2022-11-15T09:41:42.978Z,11.12
2022-11-15T09:42:51.415Z,11.11
2022-11-15T09:43:46.960Z,11.13
2022-11-15T09:45:05.471Z,11.12
2022-11-15T09:46:02.009Z,11.17
2022-11-15T09:47:39.318Z,11.25
2022-11-15T09:48:51.339Z,11.26
2022-11-15T09:49:57.865Z,11.24
2022-11-15T09:50:41.322Z,11.31
2022-11-15T09:51:29.114Z,11.33
2022-11-15T09:52:00.772Z,11.36
2022-11-15T09:52:32.244Z,11.44
2022-11-15T09:53:03.892Z,11.42
2022-11-15T09:54:37.473Z,11.40
2022-11-15T09:54:53.238Z,11.28
2022-11-15T09:55:39.253Z,11.31
2022-11-15T09:56:43.648Z,11.30
2022-11-15T09:57:32.465Z,11.39
2022-11-15T09:58:11.814Z,11.53
2022-11-15T09:58:51.994Z,11.60
2022-11-15T09:59:42.008Z,11.62
2022-11-15T10:01:49.824Z,11.87
2022-11-15T10:02:24.414Z,11.94
2022-11-15T10:03:12.252Z,11.92
2022-11-15T10:03:44.387Z,11.98
2022-11-15T10:04:16.405Z,11.99
2022-11-15T10:04:47.903Z,12.01
2022-11-15T10:05:22.150Z,12.03
2022-11-15T10:06:27.723Z,11.92
2022-11-15T10:07:05.546Z,11.85
2022-11-15T10:07:52.294Z,11.66
2022-11-15T10:08:51.133Z,11.80
2022-11-15T10:09:34.034Z,11.77
2022-11-15T10:10:31.215Z,11.73
2022-11-15T10:11:35.709Z,11.82
2022-11-15T10:11:57.311Z,11.67
2022-11-15T10:12:29.101Z,11.63
2022-11-15T10:13:00.545Z,11.58
2022-11-15T10:13:36.052Z,11.52
2022-11-15T10:14:19.404Z,11.36
2022-11-15T10:14:54.829Z,11.39
2022-11-15T10:15:26.834Z,11.39
2022-11-15T10:16:10.249Z,11.39
2022-11-15T10:17:03.507Z,11.54
2022-11-15T10:17:39.870Z,11.60
2022-11-15T10:18:36.790Z,11.72
2022-11-15T10:19:21.839Z,11.79
2022-11-15T10:20:19.262Z,11.91
2022-11-15T10:20:55.371Z,11.90
2022-11-15T10:21:54.603Z,11.91
2022-11-15T10:22:48.493Z,11.90
2022-11-15T10:23:22.433Z,11.98
2022-11-15T10:23:54.441Z,11.86
2022-11-15T10:24:29.614Z,11.97
2022-11-15T10:25:16.097Z,11.95
2022-11-15T10:25:47.607Z,11.92
2022-11-15T10:26:19.063Z,11.95
2022-11-15T10:26:51.126Z,11.91
2022-11-15T10:27:22.707Z,11.84
2022-11-15T10:27:55.692Z,11.90
2022-11-15T10:28:29.794Z,11.98
2022-11-15T10:29:04.916Z,11.99
2022-11-15T10:29:36.406Z,11.90
2022-11-15T10:30:17.165Z,11.68
2022-11-15T10:30:51.973Z,11.83
2022-11-15T10:31:40.497Z,11.62
2022-11-15T10:32:13.678Z,11.63
2022-11-15T10:32:46.891Z,11.75
2022-11-15T10:33:26.088Z,11.88
2022-11-15T10:34:24.077Z,11.90
2022-11-15T10:34:55.807Z,11.71
2022-11-15T10:35:31.588Z,11.80
2022-11-15T10:36:20.458Z,11.72
2022-11-15T10:36:59.629Z,11.78
2022-11-15T10:37:33.055Z,11.79
2022-11-15T10:38:09.322Z,11.85
2022-11-15T10:38:50.112Z,11.83
2022-11-15T10:39:21.734Z,11.77
2022-11-15T10:40:07.200Z,11.72
2022-11-15T10:40:40.466Z,11.78
2022-11-15T10:41:12.637Z,11.84
2022-11-15T10:41:44.156Z,11.90
2022-11-15T10:42:27.909Z,11.90
2022-11-15T10:43:19.082Z,11.97
2022-11-15T10:44:09.907Z,11.82
2022-11-15T10:44:45.598Z,11.66
2022-11-15T10:45:29.186Z,11.59
2022-11-15T10:46:45.178Z,11.64
2022-11-15T10:47:26.664Z,11.67
2022-11-15T10:48:12.883Z,11.58
2022-11-15T10:48:46.108Z,11.69
2022-11-15T10:49:30.896Z,11.76
2022-11-15T10:50:08.403Z,11.70
2022-11-15T10:50:47.132Z,11.69
2022-11-15T10:51:27.167Z,11.63
2022-11-15T10:51:59.384Z,11.68
2022-11-15T10:52:34.483Z,11.73
2022-11-15T10:53:16.725Z,11.74
2022-11-15T10:53:48.304Z,11.79
2022-11-15T10:54:29.915Z,11.91
2022-11-15T10:55:13.230Z,11.91
2022-11-15T10:55:48.543Z,11.88
2022-11-15T10:56:22.655Z,11.84
2022-11-15T10:56:56.147Z,11.85
2022-11-15T10:57:39.933Z,11.93
2022-11-15T10:58:44.433Z,11.86
2022-11-15T10:59:25.632Z,11.89
2022-11-15T11:00:22.045Z,11.82
2022-11-15T11:00:54.465Z,11.83
2022-11-15T11:01:28.041Z,11.87
2022-11-15T11:01:59.577Z,11.89
2022-11-15T11:02:38.124Z,11.89
2022-11-15T11:03:29.521Z,11.73
2022-11-15T11:04:03.581Z,11.74
2022-11-15T11:04:52.355Z,11.73
2022-11-15T11:05:29.911Z,11.57
2022-11-15T11:06:10.987Z,11.59
2022-11-15T11:06:49.039Z,11.64
2022-11-15T11:07:29.601Z,11.67
2022-11-15T11:08:23.186Z,11.72
2022-11-15T11:09:00.144Z,11.78
2022-11-15T11:09:33.237Z,11.73
2022-11-15T11:10:49.363Z,11.88
2022-11-15T11:11:11.259Z,11.95
2022-11-15T11:11:47.727Z,12.04
2022-11-15T11:12:29.267Z,12.07
2022-11-15T11:13:27.763Z,12.19
2022-11-15T11:14:13.019Z,12.23
2022-11-15T11:14:44.518Z,12.31
2022-11-15T11:15:17.405Z,12.37